createdAt,value
2022-09-01T00:05:00.333Z,18.68
2022-09-01T00:10:06.938Z,18.72
2022-09-01T00:15:11.988Z,18.51
2022-09-01T00:20:20.112Z,18.63
2022-09-01T00:25:24.535Z,18.40
2022-09-01T00:30:27.912Z,17.79
2022-09-01T00:35:30.783Z,18.42
2022-09-01T00:40:39.560Z,18.07
2022-09-01T00:45:43.247Z,18.24
2022-09-01T00:50:47.282Z,18.37
2022-09-01T00:55:53.822Z,17.95
2022-09-01T01:00:56.763Z,18.01
2022-09-01T01:06:04.453Z,18.18
2022-09-01T01:11:18.727Z,18.04
2022-09-01T01:16:23.242Z,18.19
2022-09-01T01:21:49.014Z,18.34
2022-09-01T01:26:52.905Z,18.00
2022-09-01T01:31:55.687Z,18.18
2022-09-01T01:37:01.119Z,17.90
2022-09-01T01:42:08.923Z,18.02
2022-09-01T01:47:14.006Z,18.03
2022-09-01T01:52:18.410Z,18.16
2022-09-01T01:57:21.123Z,18.24
2022-09-01T02:02:23.728Z,17.86
2022-09-01T02:07:28.373Z,18.06
2022-09-01T02:12:35.565Z,17.82
2022-09-01T02:17:40.654Z,17.14
2022-09-01T02:22:45.579Z,16.92
2022-09-01T02:27:54.372Z,16.47
2022-09-01T02:32:59.335Z,16.31
2022-09-01T02:38:02.030Z,15.92
2022-09-01T02:43:04.880Z,16.18
2022-09-01T02:48:11.130Z,16.07
2022-09-01T02:53:16.269Z,15.75
2022-09-01T02:58:22.924Z,15.80
2022-09-01T03:03:27.715Z,15.82
2022-09-01T03:08:35.246Z,15.63
2022-09-01T03:13:40.297Z,15.50
2022-09-01T03:18:43.745Z,15.75
2022-09-01T03:23:47.514Z,15.60
2022-09-01T03:28:53.233Z,15.64
2022-09-01T03:33:57.879Z,15.55
2022-09-01T03:39:01.193Z,15.64
2022-09-01T03:44:04.027Z,15.38
2022-09-01T03:49:08.858Z,15.58
2022-09-01T03:54:12.344Z,15.29
2022-09-01T03:59:17.672Z,15.25
2022-09-01T04:04:20.536Z,15.34
2022-09-01T04:09:23.249Z,15.21
2022-09-01T04:14:29.263Z,15.36
2022-09-01T04:19:37.835Z,15.49
2022-09-01T04:24:45.106Z,15.36
2022-09-01T04:29:49.372Z,15.27
2022-09-01T04:34:51.911Z,15.43
2022-09-01T04:39:57.266Z,15.56
2022-09-01T04:45:08.058Z,15.70
2022-09-01T04:50:18.206Z,15.75
2022-09-01T04:55:20.977Z,15.61
2022-09-01T05:00:26.385Z,15.49
2022-09-01T05:05:29.135Z,15.54
2022-09-01T05:10:34.298Z,15.57
2022-09-01T05:15:39.246Z,15.47
2022-09-01T05:20:43.008Z,15.46
2022-09-01T05:25:49.337Z,15.45
2022-09-01T05:30:55.298Z,15.41
2022-09-01T05:36:04.078Z,15.67
2022-09-01T05:41:12.065Z,15.50
2022-09-01T05:46:17.985Z,15.46
2022-09-01T05:51:43.432Z,15.12
2022-09-01T05:56:47.002Z,15.46
2022-09-01T06:01:50.699Z,15.80
2022-09-01T06:07:07.012Z,15.63
2022-09-01T06:12:30.051Z,15.93
2022-09-01T06:17:35.995Z,15.93
2022-09-01T06:22:40.317Z,15.78
2022-09-01T06:27:45.591Z,16.01
2022-09-01T06:32:50.569Z,15.85
2022-09-01T06:37:53.873Z,16.11
2022-09-01T06:42:56.651Z,16.25
2022-09-01T06:48:00.143Z,16.33
2022-09-01T06:58:32.900Z,16.52
2022-09-01T07:03:35.498Z,16.18
2022-09-01T07:14:22.051Z,16.56
2022-09-01T07:19:48.339Z,16.45
2022-09-01T07:25:11.445Z,16.45
2022-09-01T07:30:16.822Z,16.98
2022-09-01T07:35:23.316Z,16.84
2022-09-01T07:46:36.291Z,17.22
2022-09-01T07:51:37.947Z,16.99
2022-09-01T07:56:42.228Z,17.13
2022-09-01T08:01:45.128Z,17.01
2022-09-01T08:06:48.081Z,17.26
2022-09-01T08:12:01.800Z,16.95
2022-09-01T08:22:29.075Z,17.39
2022-09-01T08:27:34.181Z,17.44
2022-09-01T08:32:38.221Z,17.98
2022-09-01T08:37:45.335Z,17.94
2022-09-01T08:43:26.707Z,18.13
2022-09-01T08:54:15.819Z,18.69
2022-09-01T08:59:23.186Z,18.36
2022-09-01T09:04:34.778Z,18.49
2022-09-01T09:09:54.081Z,18.34
2022-09-01T09:15:17.930Z,18.47
2022-09-01T09:20:20.917Z,18.22
2022-09-01T09:25:25.254Z,19.12
2022-09-01T09:30:31.070Z,19.22
2022-09-01T09:35:34.190Z,19.31
2022-09-01T09:41:00.037Z,18.95
2022-09-01T09:46:25.243Z,18.94
2022-09-01T09:51:28.910Z,19.17
2022-09-01T09:56:33.202Z,18.34
2022-09-01T10:01:36.062Z,18.88
2022-09-01T10:06:42.999Z,19.37
2022-09-01T10:11:56.992Z,18.85
2022-09-01T10:17:24.512Z,19.08
2022-09-01T10:22:27.893Z,19.00
2022-09-01T10:27:34.594Z,19.13
2022-09-01T10:32:55.393Z,18.96
2022-09-01T10:38:01.524Z,18.62
2022-09-01T10:43:38.002Z,19.52
2022-09-01T10:48:55.890Z,19.55
2022-09-01T10:54:02.443Z,20.17
2022-09-01T11:04:33.396Z,19.75
2022-09-01T11:10:31.434Z,19.81
2022-09-01T11:15:41.437Z,19.42
2022-09-01T11:20:46.074Z,19.47
2022-09-01T11:26:18.994Z,19.23
2022-09-01T11:31:22.636Z,19.64
2022-09-01T11:36:46.766Z,19.70
2022-09-01T11:42:09.929Z,19.38
2022-09-01T11:47:17.531Z,19.27
2022-09-01T11:52:22.400Z,19.87
2022-09-01T11:57:35.764Z,20.10
2022-09-01T12:02:47.445Z,20.03
2022-09-01T12:07:50.312Z,19.77
2022-09-01T12:13:04.383Z,20.05
2022-09-01T12:18:19.780Z,20.00
2022-09-01T12:23:36.111Z,20.58
2022-09-01T12:28:42.427Z,20.35
2022-09-01T12:33:46.367Z,20.10
2022-09-01T12:38:49.809Z,20.16
2022-09-01T12:43:54.703Z,20.02
2022-09-01T12:49:17.589Z,20.01
2022-09-01T12:54:26.767Z,19.74
2022-09-01T12:59:37.362Z,18.96
2022-09-01T13:04:40.313Z,19.66
2022-09-01T13:09:42.867Z,19.81
2022-09-01T13:14:45.535Z,19.81
2022-09-01T13:19:48.522Z,19.70
2022-09-01T13:24:51.619Z,19.33
2022-09-01T13:29:54.445Z,19.65
2022-09-01T13:34:57.215Z,19.45
2022-09-01T13:40:01.674Z,19.22
2022-09-01T13:45:05.438Z,18.97
2022-09-01T13:50:11.472Z,19.47
2022-09-01T13:55:17.557Z,19.29
2022-09-01T14:00:25.254Z,19.14
2022-09-01T14:05:31.905Z,19.43
2022-09-01T14:10:40.332Z,19.63
2022-09-01T14:15:43.454Z,18.99
2022-09-01T14:20:49.730Z,19.38
2022-09-01T14:25:52.662Z,19.72
2022-09-01T14:35:55.836Z,20.09
2022-09-01T14:40:58.533Z,20.10
2022-09-01T14:46:11.824Z,20.10
2022-09-01T14:51:24.865Z,19.78
2022-09-01T14:56:27.684Z,20.11
2022-09-01T15:01:34.546Z,20.18
2022-09-01T15:06:37.737Z,20.36
2022-09-01T15:11:44.221Z,20.28
2022-09-01T15:16:48.446Z,20.31
2022-09-01T15:21:52.601Z,20.04
2022-09-01T15:26:55.994Z,20.82
2022-09-01T15:31:58.690Z,20.41
2022-09-01T15:37:01.343Z,20.71
2022-09-01T15:42:04.399Z,20.37
2022-09-01T15:47:07.151Z,19.97
2022-09-01T15:52:09.789Z,20.00
2022-09-01T15:57:12.908Z,19.64
2022-09-01T16:02:18.533Z,19.34
2022-09-01T16:07:21.381Z,19.54
2022-09-01T16:12:27.444Z,19.36
2022-09-01T16:17:42.259Z,19.50
2022-09-01T16:23:22.059Z,19.51
2022-09-01T16:28:32.066Z,19.42
2022-09-01T16:39:01.270Z,19.87
2022-09-01T16:44:19.237Z,19.63
2022-09-01T16:49:35.627Z,19.32
2022-09-01T16:55:19.380Z,18.76
2022-09-01T17:00:28.075Z,18.67
2022-09-01T17:05:31.919Z,18.88
2022-09-01T17:10:47.177Z,18.70
2022-09-01T17:15:58.650Z,19.71
2022-09-01T17:21:19.746Z,19.43
2022-09-01T17:26:26.502Z,19.00
2022-09-01T17:31:51.773Z,18.94
2022-09-01T17:37:16.682Z,18.60
2022-09-01T17:42:37.494Z,18.50
2022-09-01T17:48:04.021Z,18.51
2022-09-01T17:53:22.819Z,18.39
2022-09-01T17:58:47.116Z,18.48
2022-09-01T18:04:36.694Z,18.47
2022-09-01T18:09:53.392Z,18.26
2022-09-01T18:15:09.987Z,18.19
2022-09-01T18:20:18.493Z,18.35
2022-09-01T18:25:27.146Z,18.25
2022-09-01T18:30:52.900Z,18.19
2022-09-01T18:36:20.661Z,18.27
2022-09-01T18:41:56.682Z,18.02
2022-09-01T18:47:11.238Z,18.04
2022-09-01T18:52:20.322Z,18.18
2022-09-01T18:57:33.226Z,17.83
2022-09-01T19:03:06.083Z,17.47
2022-09-01T19:08:39.534Z,17.66
2022-09-01T19:13:58.830Z,17.63
2022-09-01T19:19:33.777Z,17.83
2022-09-01T19:24:39.506Z,18.12
2022-09-01T19:29:46.402Z,18.10
2022-09-01T19:34:54.839Z,18.19
2022-09-01T19:39:58.604Z,17.93
2022-09-01T19:45:13.140Z,18.18
2022-09-01T19:50:32.310Z,18.15
2022-09-01T19:55:55.809Z,18.24
2022-09-01T20:01:03.396Z,18.22
2022-09-01T20:06:13.109Z,18.05
2022-09-01T20:11:41.812Z,18.13
2022-09-01T20:16:52.083Z,17.41
2022-09-01T20:22:00.438Z,17.95
2022-09-01T20:27:26.412Z,17.78
2022-09-01T20:32:44.366Z,17.71
2022-09-01T20:38:42.201Z,17.43
2022-09-01T20:43:50.213Z,17.48
2022-09-01T20:48:54.723Z,17.68
2022-09-01T20:54:22.922Z,17.76
2022-09-01T20:59:39.212Z,17.72
2022-09-01T21:04:51.789Z,17.26
2022-09-01T21:10:04.080Z,17.19
2022-09-01T21:15:29.913Z,17.69
2022-09-01T21:20:45.815Z,17.75
2022-09-01T21:25:50.665Z,17.51
2022-09-01T21:30:56.195Z,17.54
2022-09-01T21:36:00.952Z,17.26
2022-09-01T21:41:10.830Z,17.47
2022-09-01T21:46:17.301Z,17.27
2022-09-01T21:51:21.062Z,17.60
2022-09-01T21:56:25.547Z,17.45
2022-09-01T22:01:32.171Z,17.53
2022-09-01T22:06:35.898Z,17.50
2022-09-01T22:11:41.884Z,17.71
2022-09-01T22:16:46.743Z,17.68
2022-09-01T22:21:51.226Z,17.53
2022-09-01T22:26:55.052Z,17.38
2022-09-01T22:31:58.797Z,17.10
2022-09-01T22:37:02.553Z,17.40
2022-09-01T22:42:06.600Z,17.20
2022-09-01T22:47:10.778Z,17.55
2022-09-01T22:52:14.390Z,17.31
2022-09-01T22:57:18.292Z,17.53
2022-09-01T23:02:22.552Z,16.28
2022-09-01T23:07:26.306Z,17.54
2022-09-01T23:12:30.025Z,17.49
2022-09-01T23:17:35.066Z,17.54
2022-09-01T23:22:44.293Z,17.55
2022-09-01T23:27:47.951Z,17.34
2022-09-01T23:32:51.781Z,17.40
2022-09-01T23:37:55.964Z,17.49
2022-09-01T23:42:59.769Z,17.38
2022-09-01T23:48:03.639Z,17.37
2022-09-01T23:53:07.537Z,16.57
2022-09-01T23:58:11.747Z,17.33
